AirNav   TITAN Aviation Fuels
 
 1309 users online  

KCKA Kegelman Air Force Auxiliary Field
Cherokee, Oklahoma, USA

GOING TO CHEROKEE?


FAA INFORMATION EFFECTIVE 15 JULY 2021

Location

FAA Identifier: CKA
Lat/Long: 36-44-08.4850N 098-07-24.9950W
36-44.141417N 098-07.416583W
36.7356903,-98.1236097
(estimated)
Elevation: 1202.9 ft. / 367 m (estimated)
Variation: 07E (1985)
From city: 11 miles E of CHEROKEE, OK
Time zone: UTC -5 (UTC -6 during Standard Time)
Zip code: 73749

Airport Operations

Airport use: Private use. Permission required prior to landing
Control tower: no
ARTCC: KANSAS CITY CENTER
FSS: MC ALESTER FLIGHT SERVICE STATION
Attendance: UNATNDD
Wind indicator: yes
Segmented circle: no

Airport Communications

CTAF: 139.9

Nearby radio navigation aids

VOR radial/distance  VOR name  Freq  Var
ENDr332/25.4VANCE VORTAC115.4005E
ODGr315/27.1WOODRING VOR/DME109.0008E

Airport Services

Airframe service: NONE
Powerplant service: NONE
Bottled oxygen: NONE
Bulk oxygen: NONE

Runway Information

Runway 17/35

Dimensions: 7800 x 150 ft. / 2377 x 46 m
Surface: asphalt
Weight bearing capacity: 
PCN 30 /F/B/W/T
RUNWAY 17  RUNWAY 35
Latitude: 36-44.783667N36-43.499167N
Longitude: 098-07.387500W098-07.445667W
Elevation: 1202.9 ft.1166.1 ft.
Traffic pattern: leftleft
Runway heading: 176 magnetic, 183 true356 magnetic, 003 true
Markings: NSTD, in good conditionNSTD, in good condition
Runway end identifier lights: nono

Airport Ownership and Management from official FAA records

Ownership: U.S. Air Force
Owner: U.S. AIR FORCE
71ST FLT TRNG WG VANCE AFB
ENID, OK 73705
Phone 580-213-7101
Manager: LAWRENCE FRANKLIN
71 FTW, VANCE AFB
ENID, OK 73705
Phone 580-213-7424
DSN 448-7424.

Airport Operational Statistics

Aircraft operations: avg 164/day
100% military

Additional Remarks

TFC PAT: MIL ACFT USE RIGHT & LEFT 360 OVHD APCH TO RWY 17/35.
1000 FT ASPH OVRN END OF RWY 17.
MISC: AUX TO VANCE AFB. LTD EXCLUSIVELY TO VANCE AFB JET TRNG ACFT.
MISC: RWY SUPERVISORY UNIT (CALLSIGN DOGFACE) CTL VANCE T-6 STUDENT TRNG ACFT ON CTAF OR 139.9 DUR DAYLT HR MON-FRI.
CAUTION: LED OBST LGT INSTL WHICH MAY NOT BE VIS TO SOME NVD OR NGT VISION GOGGLES.
FOR CD CTC VANCE APCH AT 580-213-6765. WHEN VANCE APCH IS CLSD, CTC KANSAS CITY ARTCC AT 913-254-8508.
VANCE AFLD OPS DSN 448-7425/7426, C580-213-7425/7426.
MISC: BASH PHASE I - NML BIRD ACT OUTSIDE MIGRATORY SEASON. PHASE II - HVY BIRD ACT, NML ASSOCIATED WITH MIGRATORY SEASON. PHASE II FM 1 OCT - 31 JAN DUE TO MIGRATORY PATS OF LRG WATERFOWL, SANDHILL CRANES, GRACKLES AND SEVERAL BLACKBIRD SPECIES; PHASE II FM15 APR - 31 MAY FOR FRANKLIN GULL. AIRCREWS SHOULD BE AWARE OF THE INCRD BIRD ACT & BASH POTENTIAL AT THESE TIMES.

Instrument Procedures

There are no published instrument procedures at KCKA.

Some nearby airports with instrument procedures:

O53 - Medford Municipal Airport (18 nm E)
KANY - Anthony Municipal Airport (25 nm N)
KEND - Vance Air Force Base (26 nm SE)
KAVK - Alva Regional Airport (26 nm W)
KWDG - Enid Woodring Regional Airport (27 nm SE)
 
Loc | Ops | Rwys | IFR | FBO | Links
Com | Nav | Svcs | Stats | Notes
Area around KCKA (Kegelman Air Force Auxiliary Field)
 
Road maps at: MapQuest Bing Google
 
Aerial photo
No photo
 
Sectional chart

 
Airport distance calculator
Flying to Kegelman Air Force Auxiliary Field? Find the distance to fly.

From to KCKA

Sunrise and sunset
Times for 28-Jul-2021
 Local
(UTC-5)
 Zulu
(UTC)
Morning civil twilight06:0711:07
Sunrise06:3611:36
Sunset20:4201:42
Evening civil twilight21:1102:11

Current date and time
Zulu (UTC)  28-Jul-2021 13:42:18
Local (UTC-5)  28-Jul-2021 08:42:18
 
METAR
KAVK 
26nm W 
281315Z AUTO 14007KT 10SM CLR 26/23 A3009 RMK AO2
KEND 
27nm S 
281256Z AUTO 13004KT 10SM CLR 25/23 A3008 RMK AO2 SLP172 T02540225 $
KWDG 
28nm SE 
281250Z 00000KT 10SM FEW120 24/24 A3007
KBKN 
37nm E 
281315Z AUTO 11004KT 10SM FEW055 A3008 RMK AO2
KP28 
39nm NW 
281256Z AUTO 14005KT 24/22 A3008 RMK AO1 SLP168 T02440222 $
KPNC 
49nm E 
281253Z AUTO 16003KT 10SM CLR 27/23 A3008 RMK AO2 SLP171 T02670233
TAF
KEND 
27nm S 
281000Z 2810/2916 15009KT 9999 SCT050 QNH2997INS BECMG 2902/2903 17009KT 9999 FEW050 QNH3002INS TX36/2821Z TN25/2813Z
NOTAMs
Click for the latest NOTAMs
NOTAMs are issued by the DoD/FAA and will open in a separate window not controlled by AirNav.

 

 
 

Would you like to see your business listed on this page?

 If your business provides an interesting product or service to pilots, flight crews, aircraft, or users of the Kegelman Air Force Auxiliary Field, you should consider listing it here.  To start the listing process, click on the button below
 
Add a business
 

Other Pages about Kegelman Air Force Auxiliary Field

Update a link
 
Copyright © AirNav, LLC. All rights reserved. Privacy Policy  Contact